Maersk Shanghai — D5LD2 — position and weather

sailwx.info

Track history (hours):
 
Tides and Currents Weather Stations Pressure Air Temp Water Temp Dewpoint Dewpoint Depression Visibility Wind Speed Wind Dir Waves Ship Positions

Maersk Shanghai

Last reported at 2018-Aug-07 00:49 UTC. Time now 2018-Aug-17 11:14 UTC.
Position N 35°01' E 129°22'.
Warning: this ship's position is 10 days out of date.

Length 324 m; draft 11.6 m.

Type: Cargo ship. MMSI: 636017473.

Date/timePositionNaut miles runAvg speedWind from/ knotsBaromVisibWave heightAir tempDewpointWater temp
2018-Aug-07 00:49N 35°01' E 129°22'2518.0
2018-Aug-06 23:26N 34°57' E 128°52'2 0.1
2018-Aug-05 15:28N 34°56' E 128°50'42418.6
2018-Aug-04 16:41N 30°33' E 122°15'10 2.0
2018-Aug-04 11:33N 30°37' E 122°04'0 0.0
2018-Aug-04 10:07N 30°37' E 122°04'0 0.0
2018-Aug-03 17:29N 30°37' E 122°04'2 3.9
2018-Aug-03 16:53N 30°36' E 122°06'512.5
2018-Aug-03 16:28N 30°34' E 122°11'5 9.9
2018-Aug-03 15:56N 30°33' E 122°17'  
2018-Jul-30 17:29N 24°43' E 119°41'1217.5
2018-Jul-30 16:47N 24°36' E 119°31'517.9
2018-Jul-30 16:29N 24°32' E 119°26'817.9
2018-Jul-30 16:00N 24°27' E 119°19'917.8
2018-Jul-30 15:30N 24°20' E 119°12'917.9
2018-Jul-30 15:00N 24°15' E 119°05'917.9
2018-Jul-30 14:30N 24°09' E 118°57'918.1
2018-Jul-30 14:00N 24°03' E 118°50'918.1
2018-Jul-30 13:30N 23°57' E 118°42'918.3
2018-Jul-30 13:00N 23°52' E 118°34'1018.6
2018-Jul-30 12:29N 23°45' E 118°26'918.5
2018-Jul-30 12:00N 23°39' E 118°19'918.8
2018-Jul-30 11:30N 23°33' E 118°11'918.6
2018-Jul-30 11:00N 23°28' E 118°03'918.1
2018-Jul-30 10:30N 23°22' E 117°55'917.4
2018-Jul-30 10:00N 23°16' E 117°48'917.1
2018-Jul-30 09:30N 23°10' E 117°42'2316.9
2018-Jul-30 08:07N 22°54' E 117°23'  
Track history (hours):
 
Tides and Currents Weather Stations Pressure Air Temp Water Temp Dewpoint Dewpoint Depression Visibility Wind Speed Wind Dir Waves Ship Positions

Maersk Shanghai

Last reported at 2018-Aug-07 00:49 UTC. Time now 2018-Aug-17 11:14 UTC.
Position N 35°01' E 129°22'.
Warning: this ship's position is 10 days out of date.

Length 324 m; draft 11.6 m.

Type: Cargo ship. MMSI: 636017473.

Date/timePositionNaut miles runAvg speedWind from/ knotsBaromVisibWave heightAir tempDewpointWater temp
2018-Aug-07 00:49N 35°01' E 129°22'2518.0
2018-Aug-06 23:26N 34°57' E 128°52'2 0.1
2018-Aug-05 15:28N 34°56' E 128°50'42418.6
2018-Aug-04 16:41N 30°33' E 122°15'10 2.0
2018-Aug-04 11:33N 30°37' E 122°04'0 0.0
2018-Aug-04 10:07N 30°37' E 122°04'0 0.0
2018-Aug-03 17:29N 30°37' E 122°04'2 3.9
2018-Aug-03 16:53N 30°36' E 122°06'512.5
2018-Aug-03 16:28N 30°34' E 122°11'5 9.9
2018-Aug-03 15:56N 30°33' E 122°17'  
2018-Jul-30 17:29N 24°43' E 119°41'1217.5
2018-Jul-30 16:47N 24°36' E 119°31'517.9
2018-Jul-30 16:29N 24°32' E 119°26'817.9
2018-Jul-30 16:00N 24°27' E 119°19'917.8
2018-Jul-30 15:30N 24°20' E 119°12'917.9
2018-Jul-30 15:00N 24°15' E 119°05'917.9
2018-Jul-30 14:30N 24°09' E 118°57'918.1
2018-Jul-30 14:00N 24°03' E 118°50'918.1
2018-Jul-30 13:30N 23°57' E 118°42'918.3
2018-Jul-30 13:00N 23°52' E 118°34'1018.6
2018-Jul-30 12:29N 23°45' E 118°26'918.5
2018-Jul-30 12:00N 23°39' E 118°19'918.8
2018-Jul-30 11:30N 23°33' E 118°11'918.6
2018-Jul-30 11:00N 23°28' E 118°03'918.1
2018-Jul-30 10:30N 23°22' E 117°55'917.4
2018-Jul-30 10:00N 23°16' E 117°48'917.1
2018-Jul-30 09:30N 23°10' E 117°42'2316.9
2018-Jul-30 08:07N 22°54' E 117°23'  

Dump ship's entire track history